Time;durP1;ratioP1;P1;durP2;ratioP2;P2;SDS_P1;SDS_P2;PMS_P1;PMS_P2;Temp;Humidity;BMP_temperature;BMP_pressure;BME280_temperature;BME280_humidity;BME280_pressure;Samples;Min_cycle;Max_cycle;Signal;HPM_P1;HPM_P2
2023/03/25 00:01:12;;;;;;;14.38;1.92;;;11.00;99.90;;;;;;5158345;27;20423;-72
2023/03/25 00:03:45;;;;;;;19.83;2.08;;;11.10;99.90;;;;;;5158617;27;20039;-72
2023/03/25 00:06:12;;;;;;;24.40;2.80;;;11.10;99.90;;;;;;5158615;27;20110;-72
2023/03/25 00:08:38;;;;;;;21.13;2.22;;;11.10;99.90;;;;;;5158488;27;20037;-72
2023/03/25 00:11:05;;;;;;;19.05;2.20;;;11.00;99.90;;;;;;5158376;27;20030;-72
2023/03/25 00:13:31;;;;;;;15.93;2.20;;;11.00;99.90;;;;;;5158485;27;20122;-72
2023/03/25 00:15:58;;;;;;;20.95;2.13;;;11.10;99.90;;;;;;5158239;27;20074;-72
2023/03/25 00:18:28;;;;;;;19.55;2.05;;;11.00;99.90;;;;;;5158032;27;20079;-72
2023/03/25 00:20:54;;;;;;;16.92;1.98;;;11.00;99.90;;;;;;5158400;27;20035;-72
2023/03/25 00:23:21;;;;;;;20.20;2.65;;;11.00;99.90;;;;;;5158383;27;20117;-72
2023/03/25 00:25:47;;;;;;;19.10;2.35;;;11.00;99.90;;;;;;5158153;27;20397;-72
2023/03/25 00:28:14;;;;;;;13.85;2.65;;;11.00;99.90;;;;;;5140186;27;20125;-72
2023/03/25 00:30:41;;;;;;;18.00;2.35;;;11.00;99.90;;;;;;5158282;27;20042;-72
2023/03/25 00:33:12;;;;;;;13.15;2.03;;;11.00;99.90;;;;;;5139657;27;20118;-72
2023/03/25 00:35:43;;;;;;;19.70;2.33;;;10.90;99.90;;;;;;5158380;27;20114;-71
2023/03/25 00:38:12;;;;;;;15.32;2.50;;;11.00;99.90;;;;;;5157989;27;20448;-72
2023/03/25 00:40:38;;;;;;;23.70;2.40;;;10.90;99.90;;;;;;5158181;27;20077;-72
2023/03/25 00:43:05;;;;;;;15.43;2.13;;;11.00;99.90;;;;;;5157928;27;20043;-72
2023/03/25 00:45:32;;;;;;;26.08;3.58;;;10.80;99.90;;;;;;5158183;27;20042;-72
2023/03/25 00:47:58;;;;;;;14.00;2.13;;;10.70;99.90;;;;;;5157452;27;20451;-72
2023/03/25 00:50:25;;;;;;;18.73;2.50;;;10.60;99.90;;;;;;5157805;27;20059;-71
2023/03/25 00:52:52;;;;;;;21.67;2.50;;;10.70;99.90;;;;;;5158015;27;20103;-72
2023/03/25 00:55:18;;;;;;;15.85;2.42;;;10.70;99.90;;;;;;5158110;27;20045;-72
2023/03/25 00:57:44;;;;;;;16.88;3.00;;;10.70;99.90;;;;;;5157849;27;20038;-72
2023/03/25 01:00:12;;;;;;;19.95;2.30;;;10.60;99.90;;;;;;5158055;27;20034;-72
2023/03/25 01:02:40;;;;;;;16.42;2.47;;;10.70;99.90;;;;;;5139877;27;20385;-72
2023/03/25 01:05:09;;;;;;;20.75;2.53;;;10.60;99.90;;;;;;5157640;27;20121;-72
2023/03/25 01:07:35;;;;;;;24.08;3.20;;;10.60;99.90;;;;;;5158004;27;20382;-72
2023/03/25 01:10:01;;;;;;;24.50;3.85;;;10.50;99.90;;;;;;5157951;27;20042;-72
2023/03/25 01:12:27;;;;;;;25.90;3.20;;;10.50;99.90;;;;;;5161082;27;20046;-72
2023/03/25 01:14:53;;;;;;;27.00;3.70;;;10.40;99.90;;;;;;5161655;27;20038;-72
2023/03/25 01:17:19;;;;;;;29.52;4.45;;;10.40;99.90;;;;;;5142853;27;20087;-73
2023/03/25 01:19:45;;;;;;;21.55;4.63;;;10.40;99.90;;;;;;5161602;27;20042;-72
2023/03/25 01:22:11;;;;;;;31.60;5.88;;;10.20;99.90;;;;;;5161605;27;20113;-72
2023/03/25 01:24:37;;;;;;;23.92;6.43;;;10.30;99.90;;;;;;5161544;27;20070;-72
2023/03/25 01:27:03;;;;;;;24.35;7.20;;;10.30;99.90;;;;;;5161472;27;20031;-72
2023/03/25 01:29:29;;;;;;;30.40;7.88;;;10.20;99.90;;;;;;5161392;27;20051;-72
2023/03/25 01:31:55;;;;;;;30.83;7.85;;;10.30;99.90;;;;;;5161289;27;20043;-72
2023/03/25 01:34:21;;;;;;;25.38;8.85;;;10.20;99.90;;;;;;5161315;27;20079;-72
2023/03/25 01:36:47;;;;;;;29.85;9.07;;;10.10;99.90;;;;;;5143012;27;20111;-72
2023/03/25 01:39:18;;;;;;;24.30;8.50;;;10.10;99.90;;;;;;5142602;27;20042;-72
2023/03/25 01:41:46;;;;;;;30.85;9.70;;;10.00;99.90;;;;;;5161217;27;20095;-72
2023/03/25 01:44:20;;;;;;;24.98;8.85;;;10.10;99.90;;;;;;5161148;27;20045;-72
2023/03/25 01:46:48;;;;;;;29.30;8.70;;;9.90;99.90;;;;;;5161087;27;20121;-72
2023/03/25 01:49:22;;;;;;;35.58;9.38;;;9.90;99.90;;;;;;5160625;27;20382;-72
2023/03/25 01:51:52;;;;;;;30.77;9.90;;;9.90;99.90;;;;;;5160538;27;20051;-72
2023/03/25 01:54:18;;;;;;;37.03;9.15;;;9.90;99.90;;;;;;5160913;27;20050;-72
2023/03/25 01:56:46;;;;;;;38.85;9.95;;;9.90;99.90;;;;;;5160880;27;20035;-72
2023/03/25 01:59:17;;;;;;;35.05;10.00;;;10.00;99.90;;;;;;5160773;27;20419;-72
2023/03/25 02:01:45;;;;;;;34.97;9.60;;;10.00;99.90;;;;;;5160844;27;20035;-72
2023/03/25 02:04:12;;;;;;;33.20;9.68;;;10.10;99.90;;;;;;5142324;27;20031;-71
2023/03/25 02:06:54;;;;;;;35.13;9.25;;;9.90;99.90;;;;;;5160714;27;20034;-72
2023/03/25 02:09:23;;;;;;;34.05;9.90;;;10.00;99.90;;;;;;5142389;27;20042;-71
2023/03/25 02:11:53;;;;;;;39.35;9.95;;;10.00;99.90;;;;;;5160510;27;20042;-72
2023/03/25 02:14:23;;;;;;;32.50;9.82;;;10.00;99.90;;;;;;5160807;27;20125;-72
2023/03/25 02:17:05;;;;;;;35.38;9.85;;;10.00;99.90;;;;;;5160466;27;20118;-72
2023/03/25 02:19:31;;;;;;;39.13;10.20;;;10.00;99.90;;;;;;5160155;27;20424;-72
2023/03/25 02:22:16;;;;;;;31.65;10.20;;;9.90;99.90;;;;;;5160038;27;20067;-72
2023/03/25 02:25:17;;;;;;;35.67;11.25;;;9.80;99.90;;;;;;5160322;27;20049;-72
2023/03/25 02:28:09;;;;;;;38.22;12.07;;;9.80;99.90;;;;;;5160297;27;20039;-72
2023/03/25 02:30:49;;;;;;;41.92;11.38;;;9.80;99.90;;;;;;5160270;27;20039;-72
2023/03/25 02:34:00;;;;;;;41.55;11.48;;;9.80;99.90;;;;;;5160130;27;20043;-72
2023/03/25 02:36:58;;;;;;;44.78;12.07;;;9.70;99.90;;;;;;5160159;27;20034;-72
2023/03/25 02:39:32;;;;;;;38.63;10.02;;;9.70;99.90;;;;;;5159747;27;20034;-72
2023/03/25 02:42:01;;;;;;;39.50;11.20;;;9.60;99.90;;;;;;5159993;27;20048;-71
2023/03/25 02:44:39;;;;;;;46.50;9.38;;;9.60;99.90;;;;;;5159909;27;20042;-71
2023/03/25 02:47:10;;;;;;;38.78;9.93;;;9.70;99.90;;;;;;5159498;27;20129;-72
2023/03/25 02:49:41;;;;;;;44.85;8.82;;;9.80;99.90;;;;;;5159850;27;20046;-71
2023/03/25 02:52:25;;;;;;;27.50;8.18;;;9.70;99.90;;;;;;5159366;27;20054;-72
2023/03/25 02:54:56;;;;;;;45.05;8.63;;;9.80;99.90;;;;;;5159707;27;20039;-71
2023/03/25 02:57:27;;;;;;;42.05;9.48;;;9.80;99.90;;;;;;5159852;27;20091;-71
2023/03/25 02:59:53;;;;;;;31.60;8.77;;;9.80;99.90;;;;;;5159385;27;20416;-71
2023/03/25 03:02:24;;;;;;;41.47;8.40;;;9.90;99.90;;;;;;5159230;27;20412;-72
2023/03/25 03:04:55;;;;;;;42.47;8.32;;;9.90;99.90;;;;;;5159545;27;20034;-72
2023/03/25 03:07:35;;;;;;;28.55;8.05;;;9.90;99.90;;;;;;5159478;27;20043;-71
2023/03/25 03:10:03;;;;;;;30.98;8.15;;;9.80;99.90;;;;;;5159480;27;20085;-71
2023/03/25 03:12:46;;;;;;;37.08;8.63;;;9.90;99.90;;;;;;5159298;27;20042;-71
2023/03/25 03:15:35;;;;;;;31.70;8.57;;;9.90;99.90;;;;;;5159333;27;20114;-72
2023/03/25 03:18:16;;;;;;;27.52;8.13;;;9.90;99.90;;;;;;5142527;27;20053;-71
2023/03/25 03:21:10;;;;;;;31.00;7.95;;;10.00;99.90;;;;;;5159297;27;20035;-71
2023/03/25 03:23:56;;;;;;;35.45;8.13;;;10.00;99.90;;;;;;5159191;27;20042;-71
2023/03/25 03:26:36;;;;;;;25.50;7.10;;;10.00;99.90;;;;;;5158876;27;20435;-71
2023/03/25 03:29:08;;;;;;;34.50;9.07;;;10.00;99.90;;;;;;5158890;27;20438;-72
2023/03/25 03:31:43;;;;;;;30.85;7.40;;;10.10;99.90;;;;;;5140736;27;20046;-72
2023/03/25 03:34:35;;;;;;;33.47;7.75;;;10.10;99.90;;;;;;5158358;27;20038;-72
2023/03/25 03:37:04;;;;;;;25.35;7.45;;;10.20;99.90;;;;;;5158660;27;20062;-72
2023/03/25 03:39:35;;;;;;;30.58;7.70;;;10.20;99.90;;;;;;5158653;27;20411;-72
2023/03/25 03:42:25;;;;;;;32.35;9.10;;;10.20;99.90;;;;;;5140684;27;20039;-72
2023/03/25 03:45:02;;;;;;;25.25;7.70;;;10.20;99.90;;;;;;5140687;27;20046;-72
2023/03/25 03:47:32;;;;;;;27.65;7.50;;;10.20;99.90;;;;;;5158477;27;20042;-72
2023/03/25 03:50:03;;;;;;;32.83;8.50;;;10.20;99.90;;;;;;5158323;27;20454;-72
2023/03/25 03:52:48;;;;;;;27.90;7.63;;;10.30;99.90;;;;;;5158235;27;20385;-73
2023/03/25 03:55:42;;;;;;;29.02;7.28;;;10.20;99.90;;;;;;5158440;27;20428;-72
2023/03/25 03:58:15;;;;;;;26.25;7.28;;;10.20;99.90;;;;;;5158727;27;20320;-72
2023/03/25 04:00:48;;;;;;;40.50;9.02;;;10.30;99.90;;;;;;5158626;27;20119;-71
2023/03/25 04:03:23;;;;;;;32.33;8.43;;;10.30;99.90;;;;;;5158637;27;20091;-71
2023/03/25 04:05:59;;;;;;;35.35;8.40;;;10.30;99.90;;;;;;5158286;27;20046;-72
2023/03/25 04:08:36;;;;;;;43.53;8.65;;;10.30;99.90;;;;;;5158573;27;20094;-72
2023/03/25 04:11:07;;;;;;;33.58;8.68;;;10.40;99.90;;;;;;5140114;27;20039;-71
2023/03/25 04:13:38;;;;;;;27.65;8.63;;;10.30;99.90;;;;;;5158510;27;20042;-71
2023/03/25 04:16:05;;;;;;;40.92;8.88;;;10.30;99.90;;;;;;5158533;27;20030;-71
2023/03/25 04:18:32;;;;;;;31.60;8.80;;;10.30;99.90;;;;;;5158052;27;20035;-72
2023/03/25 04:20:59;;;;;;;26.55;8.57;;;10.20;99.90;;;;;;5140160;27;20393;-71
2023/03/25 04:23:28;;;;;;;30.77;8.88;;;10.30;99.90;;;;;;5158060;27;20436;-72
2023/03/25 04:25:54;;;;;;;35.38;9.98;;;10.40;99.90;;;;;;5158057;27;20470;-72
2023/03/25 04:28:22;;;;;;;26.58;7.80;;;10.50;99.90;;;;;;5158369;27;20053;-72
2023/03/25 04:30:54;;;;;;;27.25;7.93;;;10.40;99.90;;;;;;5158341;27;20050;-72
2023/03/25 04:33:23;;;;;;;22.00;6.72;;;10.50;99.90;;;;;;5158339;27;20174;-72
2023/03/25 04:35:50;;;;;;;28.55;6.90;;;10.40;99.90;;;;;;5158295;27;20165;-72
2023/03/25 04:38:17;;;;;;;29.55;8.73;;;10.40;99.90;;;;;;5158257;27;20035;-72
2023/03/25 04:40:45;;;;;;;30.25;7.90;;;10.40;99.90;;;;;;5157917;27;20039;-72
2023/03/25 04:43:15;;;;;;;28.88;8.20;;;10.40;99.90;;;;;;5158172;27;20109;-72
2023/03/25 04:45:47;;;;;;;31.13;8.60;;;10.30;99.90;;;;;;5160231;27;20034;-72
2023/03/25 04:48:23;;;;;;;34.78;9.43;;;10.40;99.90;;;;;;5161946;27;20042;-72
2023/03/25 04:50:50;;;;;;;32.13;9.25;;;10.30;99.90;;;;;;5143557;27;20047;-72
2023/03/25 04:53:17;;;;;;;19.65;8.55;;;10.20;99.90;;;;;;5162049;27;20047;-72
2023/03/25 04:55:46;;;;;;;23.98;9.35;;;10.10;99.90;;;;;;5162055;27;20030;-72
2023/03/25 04:58:14;;;;;;;30.17;10.57;;;10.10;99.90;;;;;;5162017;27;20122;-72
2023/03/25 05:00:40;;;;;;;33.63;10.23;;;10.10;99.90;;;;;;5161984;27;20163;-72
2023/03/25 05:03:08;;;;;;;28.58;10.75;;;10.20;99.90;;;;;;5161668;27;20419;-72
2023/03/25 05:05:34;;;;;;;25.98;9.40;;;10.10;99.90;;;;;;5161886;27;20050;-72
2023/03/25 05:08:00;;;;;;;30.42;9.77;;;10.20;99.90;;;;;;5161886;27;20091;-72
2023/03/25 05:10:29;;;;;;;40.15;9.45;;;10.20;99.90;;;;;;5161814;27;20403;-72
2023/03/25 05:12:59;;;;;;;29.42;8.68;;;10.10;99.90;;;;;;5161355;27;20419;-72
2023/03/25 05:15:25;;;;;;;31.67;8.48;;;10.00;99.90;;;;;;5161727;27;20394;-72
2023/03/25 05:17:51;;;;;;;31.23;10.07;;;10.00;99.90;;;;;;5142891;27;20174;-72
2023/03/25 05:20:17;;;;;;;35.65;8.65;;;10.10;99.90;;;;;;5161304;27;20038;-72
2023/03/25 05:22:44;;;;;;;28.50;8.20;;;9.90;99.90;;;;;;5161649;27;20376;-72
2023/03/25 05:25:10;;;;;;;36.83;8.77;;;10.00;99.90;;;;;;5161553;27;20045;-72
2023/03/25 05:27:37;;;;;;;29.35;8.80;;;10.00;99.90;;;;;;5161434;27;20038;-72
2023/03/25 05:30:05;;;;;;;34.38;8.43;;;9.90;99.90;;;;;;5161181;27;20038;-72
2023/03/25 05:32:33;;;;;;;29.38;6.78;;;9.90;99.90;;;;;;5153303;27;20035;-73
2023/03/25 05:35:00;;;;;;;34.03;7.68;;;9.80;99.90;;;;;;5160144;27;20030;-72
2023/03/25 05:37:26;;;;;;;37.00;6.97;;;9.80;99.90;;;;;;5161389;27;20031;-72
2023/03/25 05:39:52;;;;;;;37.63;6.35;;;9.80;99.90;;;;;;5161335;27;20022;-72
2023/03/25 05:42:21;;;;;;;39.40;6.55;;;9.70;99.90;;;;;;5143005;27;20438;-72
2023/03/25 05:44:49;;;;;;;36.00;5.95;;;9.70;99.90;;;;;;5160986;27;20109;-72
2023/03/25 05:47:24;;;;;;;37.42;5.65;;;9.70;99.90;;;;;;5160524;27;20079;-72
2023/03/25 05:49:51;;;;;;;38.60;5.97;;;9.70;99.90;;;;;;5161149;27;20035;-72
2023/03/25 05:52:18;;;;;;;34.10;5.47;;;9.70;99.90;;;;;;5160712;27;20039;-72
2023/03/25 05:54:45;;;;;;;38.53;6.15;;;9.70;99.90;;;;;;5160779;27;20091;-72
2023/03/25 05:57:12;;;;;;;41.00;6.13;;;9.80;99.90;;;;;;5160273;27;20113;-72
2023/03/25 05:59:39;;;;;;;31.42;4.95;;;9.80;99.90;;;;;;5160953;27;20038;-72
2023/03/25 06:02:13;;;;;;;40.65;5.53;;;9.80;99.90;;;;;;5160887;27;20103;-72
2023/03/25 06:04:42;;;;;;;31.63;5.18;;;9.70;99.90;;;;;;5160892;27;20296;-72
2023/03/25 06:07:12;;;;;;;35.75;5.55;;;9.70;99.90;;;;;;5160509;27;20332;-72
2023/03/25 06:09:44;;;;;;;35.10;4.97;;;9.80;99.90;;;;;;5160774;27;20054;-74
2023/03/25 06:12:11;;;;;;;27.42;4.88;;;9.80;99.90;;;;;;5160787;27;20308;-72
2023/03/25 06:14:37;;;;;;;33.38;5.05;;;9.70;99.90;;;;;;5160615;27;20038;-72
2023/03/25 06:17:04;;;;;;;30.70;5.10;;;9.70;99.90;;;;;;5160634;27;20049;-72
2023/03/25 06:19:30;;;;;;;36.60;5.82;;;9.70;99.90;;;;;;5159918;27;20046;-72
2023/03/25 06:21:55;;;;;;;36.97;5.55;;;9.80;99.90;;;;;;5160492;27;20034;-72
2023/03/25 06:24:21;;;;;;;34.92;4.85;;;9.80;99.90;;;;;;5160409;27;20311;-72
2023/03/25 06:26:47;;;;;;;35.17;7.00;;;9.80;99.90;;;;;;5160153;27;20115;-72
2023/03/25 06:29:12;;;;;;;30.55;4.80;;;9.90;99.90;;;;;;5141879;27;20041;-71
2023/03/25 06:31:38;;;;;;;39.00;5.85;;;9.90;99.90;;;;;;5141678;27;20045;-72
2023/03/25 06:34:04;;;;;;;30.20;5.63;;;9.90;99.90;;;;;;5160174;27;20027;-72
2023/03/25 06:36:30;;;;;;;34.47;4.95;;;9.90;99.90;;;;;;5159922;27;20403;-72
2023/03/25 06:38:57;;;;;;;29.17;5.28;;;9.90;99.90;;;;;;5141921;27;20035;-72
2023/03/25 06:41:24;;;;;;;31.80;5.22;;;10.00;99.90;;;;;;5160104;27;20099;-72
2023/03/25 06:43:50;;;;;;;28.70;4.97;;;9.90;99.90;;;;;;5160055;27;20070;-72
2023/03/25 06:46:16;;;;;;;31.08;4.90;;;9.80;99.90;;;;;;5159993;27;20308;-72
2023/03/25 06:48:41;;;;;;;36.85;5.85;;;9.70;99.90;;;;;;5159561;27;20332;-72
2023/03/25 06:51:07;;;;;;;23.67;5.50;;;9.70;99.90;;;;;;5159471;27;20082;-72
2023/03/25 06:53:33;;;;;;;23.33;4.80;;;9.60;99.90;;;;;;5159469;27;20043;-72
2023/03/25 06:55:58;;;;;;;36.05;5.10;;;9.60;99.90;;;;;;5159809;27;20038;-73
2023/03/25 06:58:33;;;;;;;26.52;5.20;;;9.60;99.90;;;;;;5141532;27;20307;-72
2023/03/25 07:01:02;;;;;;;35.10;5.38;;;9.60;99.90;;;;;;5159770;27;20047;-72
2023/03/25 07:03:28;;;;;;;31.33;4.88;;;9.70;99.90;;;;;;5159702;27;20211;-72
2023/03/25 07:05:54;;;;;;;25.60;4.15;;;9.80;99.90;;;;;;5159662;27;20041;-72
2023/03/25 07:08:20;;;;;;;27.08;4.38;;;9.90;99.90;;;;;;5140241;27;20039;-72
2023/03/25 07:10:45;;;;;;;29.45;4.50;;;9.90;99.90;;;;;;5159513;27;20038;-72
2023/03/25 07:13:11;;;;;;;33.45;5.10;;;10.10;99.90;;;;;;5159433;27;20343;-72
2023/03/25 07:15:37;;;;;;;35.95;5.20;;;10.00;99.90;;;;;;5140863;27;20115;-72
2023/03/25 07:18:03;;;;;;;29.85;4.03;;;10.00;99.90;;;;;;5158981;27;20041;-72
2023/03/25 07:20:29;;;;;;;24.05;4.40;;;10.00;99.90;;;;;;5159412;27;20031;-72
2023/03/25 07:22:54;;;;;;;25.05;4.40;;;10.10;99.90;;;;;;5159036;27;20091;-72
2023/03/25 07:25:21;;;;;;;26.10;4.00;;;10.30;99.90;;;;;;5159270;27;20046;-72
2023/03/25 07:27:47;;;;;;;28.02;4.43;;;10.20;99.90;;;;;;5158922;27;20070;-72
2023/03/25 07:30:12;;;;;;;25.15;3.97;;;10.10;99.90;;;;;;5159166;27;20077;-72
2023/03/25 07:32:38;;;;;;;23.42;3.65;;;9.80;99.90;;;;;;5159035;27;20052;-72
2023/03/25 07:35:05;;;;;;;22.33;4.07;;;9.70;99.90;;;;;;5159125;27;20030;-72
2023/03/25 07:37:30;;;;;;;23.13;4.28;;;9.60;99.90;;;;;;5159075;27;20034;-72
2023/03/25 07:39:56;;;;;;;24.05;4.38;;;9.40;99.90;;;;;;5158963;27;20106;-72
2023/03/25 07:42:22;;;;;;;27.33;5.15;;;9.30;99.90;;;;;;5158662;27;20034;-72
2023/03/25 07:44:47;;;;;;;27.23;4.80;;;9.40;99.90;;;;;;5158629;27;20063;-73
2023/03/25 07:47:13;;;;;;;31.95;5.70;;;9.50;99.90;;;;;;5158932;27;20117;-72
2023/03/25 07:49:43;;;;;;;36.00;7.05;;;9.80;99.90;;;;;;5158240;27;20152;-73
2023/03/25 07:52:09;;;;;;;29.63;5.63;;;9.80;99.90;;;;;;5139140;27;20054;-71
2023/03/25 07:54:35;;;;;;;25.38;5.80;;;9.60;99.90;;;;;;5157350;27;20031;-72
2023/03/25 07:57:01;;;;;;;29.90;6.68;;;9.40;99.90;;;;;;5158142;27;20347;-72
2023/03/25 07:59:27;;;;;;;28.15;7.43;;;9.40;99.90;;;;;;5158131;27;20035;-71
2023/03/25 08:01:52;;;;;;;33.55;7.78;;;9.40;99.90;;;;;;5140478;27;20043;-71
2023/03/25 08:04:18;;;;;;;26.00;6.95;;;9.50;99.90;;;;;;5158709;27;20113;-71
2023/03/25 08:06:44;;;;;;;24.00;5.85;;;9.40;99.90;;;;;;5158936;27;20088;-71
2023/03/25 08:09:10;;;;;;;22.33;5.35;;;9.40;99.90;;;;;;5158595;27;20035;-71
2023/03/25 08:11:36;;;;;;;23.77;4.97;;;9.30;99.90;;;;;;5158546;27;20090;-71
2023/03/25 08:14:01;;;;;;;26.30;4.55;;;9.30;99.90;;;;;;5158581;27;20031;-69
2023/03/25 08:16:27;;;;;;;25.05;5.03;;;9.20;99.90;;;;;;5158586;27;20023;-69
2023/03/25 08:18:53;;;;;;;19.67;5.40;;;9.30;99.90;;;;;;5139882;27;20396;-67
2023/03/25 08:21:26;;;;;;;15.90;3.80;;;9.50;99.90;;;;;;5162267;27;20118;-67
2023/03/25 08:24:01;;;;;;;19.05;4.13;;;9.40;99.90;;;;;;5162797;27;20035;-69
2023/03/25 08:26:28;;;;;;;20.25;4.22;;;9.40;99.90;;;;;;5162492;27;20396;-67
2023/03/25 08:28:56;;;;;;;17.35;4.60;;;9.50;99.90;;;;;;5162720;27;20066;-68
2023/03/25 08:31:23;;;;;;;15.40;4.68;;;9.60;99.90;;;;;;5162640;27;20106;-69
2023/03/25 08:33:49;;;;;;;19.75;4.65;;;9.60;99.90;;;;;;5162338;27;20419;-65
2023/03/25 08:36:18;;;;;;;25.73;4.43;;;9.60;99.90;;;;;;5162554;27;20030;-69
2023/03/25 08:38:48;;;;;;;22.33;4.93;;;9.60;99.90;;;;;;5162518;27;20038;-70
2023/03/25 08:41:14;;;;;;;26.25;6.13;;;9.60;99.90;;;;;;5143890;27;20042;-69
2023/03/25 08:43:39;;;;;;;25.42;6.13;;;9.50;99.90;;;;;;5162437;27;20049;-70
2023/03/25 08:46:06;;;;;;;26.85;5.97;;;9.50;99.90;;;;;;5162647;27;20419;-70
2023/03/25 08:48:31;;;;;;;30.98;7.43;;;9.50;99.90;;;;;;5161771;27;20412;-70
2023/03/25 08:50:57;;;;;;;30.40;7.60;;;9.50;99.90;;;;;;5162123;27;20072;-70
2023/03/25 08:53:24;;;;;;;36.03;7.68;;;9.50;99.90;;;;;;5162241;27;20054;-68
2023/03/25 08:55:54;;;;;;;30.65;8.77;;;9.50;99.90;;;;;;5161919;27;20042;-69
2023/03/25 08:58:21;;;;;;;36.50;8.43;;;9.50;99.90;;;;;;5162118;27;20031;-69
2023/03/25 09:00:48;;;;;;;28.17;8.35;;;9.50;99.90;;;;;;5162113;27;20027;-69
2023/03/25 09:03:13;;;;;;;35.65;8.18;;;9.70;99.90;;;;;;5162030;27;20039;-69
2023/03/25 09:05:39;;;;;;;24.77;7.70;;;9.60;99.90;;;;;;5143469;27;20038;-68
2023/03/25 09:08:05;;;;;;;37.45;8.38;;;9.70;99.90;;;;;;5161877;27;20031;-69
2023/03/25 09:10:31;;;;;;;39.05;8.05;;;9.80;99.90;;;;;;5161612;27;20307;-68
2023/03/25 09:12:57;;;;;;;29.25;6.80;;;9.90;99.90;;;;;;5161808;27;20080;-68
2023/03/25 09:15:23;;;;;;;31.90;5.47;;;9.90;99.90;;;;;;5161721;27;20031;-69
2023/03/25 09:17:51;;;;;;;32.03;4.70;;;9.90;99.90;;;;;;5161333;27;20073;-70
2023/03/25 09:20:17;;;;;;;33.05;7.00;;;10.00;99.90;;;;;;5161691;27;20031;-69
2023/03/25 09:22:46;;;;;;;22.48;4.95;;;10.20;99.90;;;;;;5161472;27;20035;-68
2023/03/25 09:25:12;;;;;;;21.05;4.03;;;10.50;99.90;;;;;;5161295;27;20038;-68
2023/03/25 09:27:39;;;;;;;20.77;4.97;;;10.50;99.90;;;;;;5161632;27;20118;-69
2023/03/25 09:30:06;;;;;;;32.15;5.15;;;10.50;99.90;;;;;;5142861;27;20332;-69
2023/03/25 09:32:32;;;;;;;26.17;3.95;;;10.40;99.90;;;;;;5159895;27;20172;-69
2023/03/25 09:34:58;;;;;;;20.83;3.58;;;10.20;99.90;;;;;;5161477;27;20062;-70
2023/03/25 09:37:23;;;;;;;19.48;3.75;;;10.40;99.90;;;;;;5143569;27;20087;-69
2023/03/25 09:39:49;;;;;;;24.00;3.03;;;10.40;99.90;;;;;;5161281;27;20321;-70
2023/03/25 09:42:27;;;;;;;26.67;4.38;;;10.50;99.90;;;;;;5160960;27;20038;-70
2023/03/25 09:45:15;;;;;;;29.92;3.85;;;10.80;99.90;;;;;;5125446;27;20356;-70
2023/03/25 09:48:08;;;;;;;18.95;3.00;;;10.90;99.90;;;;;;5161016;27;20031;-69
2023/03/25 09:50:35;;;;;;;17.95;3.00;;;10.80;99.90;;;;;;5125234;27;20411;-68
2023/03/25 09:53:13;;;;;;;23.35;3.35;;;10.80;99.90;;;;;;5160736;27;20035;-68
2023/03/25 09:55:41;;;;;;;25.23;3.63;;;10.70;99.90;;;;;;5160793;27;20099;-67
2023/03/25 09:58:31;;;;;;;19.58;3.83;;;10.90;99.90;;;;;;5161025;27;20046;-67
2023/03/25 10:01:13;;;;;;;17.00;3.25;;;10.90;99.90;;;;;;5160971;27;20034;-69
2023/03/25 10:03:50;;;;;;;19.52;3.20;;;10.60;99.90;;;;;;5160952;27;20034;-67
2023/03/25 10:06:19;;;;;;;16.92;3.10;;;10.30;99.90;;;;;;5160884;27;20079;-68
2023/03/25 10:09:19;;;;;;;18.77;2.83;;;10.10;99.90;;;;;;5160751;27;20046;-68
2023/03/25 10:12:10;;;;;;;24.88;4.10;;;10.20;99.90;;;;;;5160691;27;20041;-68
2023/03/25 10:14:59;;;;;;;19.95;4.13;;;10.20;99.90;;;;;;5160694;27;20038;-70
2023/03/25 10:17:55;;;;;;;20.40;4.68;;;10.10;99.90;;;;;;5107949;27;20095;-70
2023/03/25 10:20:50;;;;;;;23.42;5.68;;;10.30;99.90;;;;;;5143120;27;20070;-68
2023/03/25 10:23:31;;;;;;;19.88;5.10;;;10.30;99.90;;;;;;5152255;27;20416;-66
2023/03/25 10:26:29;;;;;;;24.45;5.22;;;10.40;99.90;;;;;;5160511;27;20109;-67
2023/03/25 10:29:09;;;;;;;26.65;4.40;;;10.30;99.90;;;;;;5159606;27;20053;-67
2023/03/25 10:31:41;;;;;;;29.38;4.82;;;10.20;99.90;;;;;;5160303;27;20038;-67
2023/03/25 10:34:16;;;;;;;24.42;4.50;;;10.20;99.90;;;;;;5160343;27;20030;-67
2023/03/25 10:36:53;;;;;;;24.52;4.75;;;10.10;99.90;;;;;;5160234;27;20026;-67
2023/03/25 10:39:21;;;;;;;21.50;4.53;;;10.20;99.90;;;;;;5159889;27;20030;-67
2023/03/25 10:41:54;;;;;;;18.33;3.47;;;10.20;99.90;;;;;;5160155;27;20039;-66
2023/03/25 10:44:21;;;;;;;18.02;3.30;;;10.30;99.90;;;;;;5159885;27;20315;-68
2023/03/25 10:47:05;;;;;;;20.25;3.10;;;10.40;99.90;;;;;;5160008;27;20065;-68
2023/03/25 10:49:31;;;;;;;20.10;3.47;;;10.40;99.90;;;;;;5159599;27;20031;-68
2023/03/25 10:51:58;;;;;;;19.90;3.70;;;10.60;99.90;;;;;;5159330;27;20049;-67
2023/03/25 10:54:30;;;;;;;21.42;3.58;;;10.60;99.90;;;;;;5159903;27;20042;-67
2023/03/25 10:57:00;;;;;;;23.02;4.05;;;10.60;99.90;;;;;;5160132;27;20031;-67
2023/03/25 10:59:42;;;;;;;17.77;2.90;;;10.80;99.90;;;;;;5159749;27;20411;-68
2023/03/25 11:02:18;;;;;;;23.13;3.15;;;10.80;99.90;;;;;;5159806;27;20038;-68
2023/03/25 11:04:46;;;;;;;22.60;4.00;;;10.70;99.90;;;;;;5159705;27;20030;-67
2023/03/25 11:07:30;;;;;;;25.55;4.03;;;10.50;99.90;;;;;;5159630;27;20034;-68
2023/03/25 11:10:29;;;;;;;23.60;3.83;;;10.60;99.90;;;;;;5159625;27;20030;-69
2023/03/25 11:12:57;;;;;;;22.92;3.25;;;10.80;99.90;;;;;;5103447;27;20126;-69
2023/03/25 11:15:28;;;;;;;25.10;3.38;;;10.70;99.90;;;;;;5159427;27;20041;-67
2023/03/25 11:18:02;;;;;;;18.48;2.80;;;10.70;99.90;;;;;;5159090;27;20042;-67
2023/03/25 11:20:34;;;;;;;15.50;2.78;;;10.90;99.90;;;;;;5159440;27;20137;-67
2023/03/25 11:23:11;;;;;;;16.05;2.58;;;10.90;99.90;;;;;;5159627;27;20303;-67
2023/03/25 11:25:40;;;;;;;17.08;2.67;;;11.00;99.90;;;;;;5159317;27;20034;-67
2023/03/25 11:28:32;;;;;;;15.38;2.40;;;11.10;99.90;;;;;;5159266;27;20031;-67
2023/03/25 11:31:14;;;;;;;17.00;3.38;;;11.00;99.90;;;;;;5158918;27;20038;-67
2023/03/25 11:33:42;;;;;;;19.65;3.03;;;11.00;99.90;;;;;;5158852;27;20114;-67
2023/03/25 11:36:28;;;;;;;21.00;2.97;;;11.00;99.90;;;;;;5158893;27;20031;-68
2023/03/25 11:39:10;;;;;;;16.55;3.58;;;11.10;99.90;;;;;;5159069;27;20083;-69
2023/03/25 11:41:36;;;;;;;14.88;2.30;;;11.30;99.90;;;;;;5159018;27;20035;-69
2023/03/25 11:44:04;;;;;;;20.30;3.30;;;11.20;99.90;;;;;;5159000;27;20031;-68
2023/03/25 11:46:32;;;;;;;13.57;2.38;;;11.10;99.90;;;;;;5140318;27;20066;-68
2023/03/25 11:49:08;;;;;;;19.98;2.65;;;11.10;99.90;;;;;;5158494;27;20038;-68
2023/03/25 11:51:35;;;;;;;14.25;1.98;;;11.20;99.90;;;;;;5122921;27;20081;-68
2023/03/25 11:54:14;;;;;;;17.05;2.33;;;11.20;99.90;;;;;;5158405;27;20039;-68
2023/03/25 11:56:41;;;;;;;18.27;2.83;;;11.20;99.90;;;;;;5158826;27;20050;-68
2023/03/25 11:59:18;;;;;;;14.75;2.05;;;11.00;99.90;;;;;;5158827;27;20042;-68
2023/03/25 12:01:47;;;;;;;9.68;2.00;;;11.10;99.90;;;;;;5158764;27;20045;-68
2023/03/25 12:04:21;;;;;;;12.52;2.30;;;11.10;99.90;;;;;;5158395;27;20041;-69
2023/03/25 12:07:00;;;;;;;18.25;2.65;;;11.20;99.90;;;;;;5158421;27;20038;-68
2023/03/25 12:09:30;;;;;;;14.68;1.92;;;11.30;99.90;;;;;;5123223;27;20042;-68
2023/03/25 12:12:15;;;;;;;16.73;2.30;;;11.40;99.90;;;;;;5158592;27;20039;-68
2023/03/25 12:14:40;;;;;;;12.27;2.00;;;11.30;99.90;;;;;;5158606;27;20157;-68
2023/03/25 12:18:03;;;;;;;11.98;2.08;;;11.40;99.90;;;;;;5139930;27;20122;-68
2023/03/25 12:21:06;;;;;;;12.10;2.08;;;11.30;99.90;;;;;;5054495;28;20048;-68
2023/03/25 12:23:40;;;;;;;16.83;2.17;;;11.30;99.90;;;;;;5052692;28;20441;-67
2023/03/25 12:26:16;;;;;;;8.57;2.03;;;11.30;99.90;;;;;;5148613;27;20053;-69
2023/03/25 12:29:25;;;;;;;12.35;1.92;;;11.40;99.90;;;;;;5158467;27;20062;-68
2023/03/25 12:32:02;;;;;;;17.30;2.80;;;11.40;99.90;;;;;;5146125;27;20087;-68
2023/03/25 12:34:53;;;;;;;15.50;2.78;;;11.30;99.90;;;;;;5139932;27;20099;-69
2023/03/25 12:37:31;;;;;;;16.85;2.60;;;11.30;99.90;;;;;;5135792;27;20031;-70
2023/03/25 12:40:40;;;;;;;16.77;2.38;;;11.30;99.90;;;;;;5136514;27;20029;-71
2023/03/25 12:43:13;;;;;;;15.93;2.00;;;11.20;99.90;;;;;;5149806;27;20066;-69
2023/03/25 12:45:51;;;;;;;10.55;1.70;;;11.30;99.90;;;;;;5158037;27;20082;-69
2023/03/25 12:48:35;;;;;;;13.10;2.10;;;11.40;99.90;;;;;;5137322;27;20107;-69
2023/03/25 12:51:03;;;;;;;11.02;2.35;;;11.40;99.90;;;;;;5137072;28;20079;-69
2023/03/25 12:54:00;;;;;;;13.30;1.63;;;11.40;99.90;;;;;;5137218;28;20178;-69
2023/03/25 12:56:29;;;;;;;19.40;2.20;;;11.40;99.90;;;;;;5136460;28;20035;-75
2023/03/25 12:59:35;;;;;;;15.65;1.90;;;11.50;99.90;;;;;;5118319;28;20417;-69
2023/03/25 13:02:21;;;;;;;12.45;2.17;;;11.40;99.90;;;;;;5137416;28;20046;-69
2023/03/25 13:05:34;;;;;;;9.80;1.63;;;11.30;99.90;;;;;;5137375;28;20041;-70